createdAt,value
2022-10-20T00:01:20.198Z,16.58
2022-10-20T00:03:50.132Z,16.88
2022-10-20T00:06:21.918Z,17.00
2022-10-20T00:08:50.668Z,16.58
2022-10-20T00:11:21.535Z,16.77
2022-10-20T00:13:53.182Z,16.17
2022-10-20T00:16:23.048Z,17.08
2022-10-20T00:18:51.291Z,16.65
2022-10-20T00:21:23.430Z,16.45
2022-10-20T00:23:52.380Z,16.75
2022-10-20T00:26:22.044Z,16.08
2022-10-20T00:28:51.664Z,16.42
2022-10-20T00:31:21.948Z,15.55
2022-10-20T00:33:50.448Z,15.45
2022-10-20T00:36:22.139Z,16.00
2022-10-20T00:38:50.488Z,16.55
2022-10-20T00:41:21.071Z,16.13
2022-10-20T00:43:52.836Z,16.27
2022-10-20T00:46:24.409Z,16.55
2022-10-20T00:48:56.562Z,16.10
2022-10-20T00:51:28.910Z,16.23
2022-10-20T00:54:02.179Z,17.23
2022-10-20T00:56:30.945Z,16.33
2022-10-20T00:58:59.242Z,16.95
2022-10-20T01:01:27.572Z,15.85
2022-10-20T01:03:55.876Z,16.88
2022-10-20T01:06:25.390Z,16.90
2022-10-20T01:08:55.406Z,16.77
2022-10-20T01:11:34.195Z,16.38
2022-10-20T01:14:15.639Z,16.23
2022-10-20T01:16:52.942Z,17.15
2022-10-20T01:19:43.471Z,17.85
2022-10-20T01:22:33.311Z,16.00
2022-10-20T01:25:15.697Z,16.80
2022-10-20T01:27:46.290Z,17.85
2022-10-20T01:30:18.525Z,18.08
2022-10-20T01:33:08.188Z,16.83
2022-10-20T01:35:43.645Z,17.73
2022-10-20T01:38:22.097Z,17.67
2022-10-20T01:40:54.021Z,17.30
2022-10-20T01:43:26.701Z,17.38
2022-10-20T01:45:56.716Z,17.88
2022-10-20T01:48:28.673Z,17.80
2022-10-20T01:50:57.472Z,17.63
2022-10-20T01:53:25.650Z,17.25
2022-10-20T01:55:56.046Z,17.00
2022-10-20T01:58:52.214Z,17.50
2022-10-20T02:01:29.903Z,17.40
2022-10-20T02:04:01.401Z,17.98
2022-10-20T02:06:41.483Z,17.90
2022-10-20T02:09:14.735Z,17.38
2022-10-20T02:11:47.778Z,17.35
2022-10-20T02:14:19.953Z,17.45
2022-10-20T02:16:50.252Z,17.92
2022-10-20T02:19:22.530Z,18.00
2022-10-20T02:21:52.835Z,18.90
2022-10-20T02:24:26.075Z,19.02
2022-10-20T02:26:57.064Z,17.58
2022-10-20T02:29:32.636Z,18.75
2022-10-20T02:32:01.269Z,18.30
2022-10-20T02:34:29.718Z,18.58
2022-10-20T02:36:59.763Z,18.38
2022-10-20T02:39:28.091Z,17.58
2022-10-20T02:41:56.416Z,18.35
2022-10-20T02:44:24.751Z,18.08
2022-10-20T02:46:54.276Z,19.77
2022-10-20T02:49:22.855Z,17.65
2022-10-20T02:51:51.289Z,18.33
2022-10-20T02:54:19.413Z,18.05
2022-10-20T02:56:47.996Z,17.60
2022-10-20T02:59:19.063Z,17.75
2022-10-20T03:01:48.056Z,18.17
2022-10-20T03:04:17.934Z,17.50
2022-10-20T03:06:46.412Z,17.80
2022-10-20T03:09:14.624Z,17.92
2022-10-20T03:11:43.208Z,17.58
2022-10-20T03:14:12.568Z,18.45
2022-10-20T03:16:40.726Z,18.38
2022-10-20T03:19:11.557Z,18.13
2022-10-20T03:21:41.823Z,19.02
2022-10-20T03:24:10.002Z,19.98
2022-10-20T03:26:38.236Z,17.52
2022-10-20T03:29:06.644Z,19.02
2022-10-20T03:31:34.977Z,19.38
2022-10-20T03:34:03.186Z,18.60
2022-10-20T03:36:31.479Z,19.63
2022-10-20T03:39:00.993Z,19.20
2022-10-20T03:41:29.130Z,19.90
2022-10-20T03:44:00.724Z,19.45
2022-10-20T03:46:28.838Z,19.65
2022-10-20T03:48:56.949Z,18.17
2022-10-20T03:51:25.524Z,19.98
2022-10-20T03:53:53.693Z,18.80
2022-10-20T03:56:23.537Z,18.77
2022-10-20T03:58:52.476Z,18.70
2022-10-20T04:01:24.009Z,19.02
2022-10-20T04:03:52.166Z,19.60
2022-10-20T04:06:20.777Z,19.27
2022-10-20T04:08:48.984Z,19.10
2022-10-20T04:11:17.126Z,19.38
2022-10-20T04:13:47.025Z,17.65
2022-10-20T04:16:15.227Z,18.85
2022-10-20T04:18:45.193Z,19.40
2022-10-20T04:21:13.670Z,19.77
2022-10-20T04:23:41.835Z,19.13
2022-10-20T04:26:10.942Z,18.77
2022-10-20T04:28:39.596Z,19.52
2022-10-20T04:31:09.509Z,18.88
2022-10-20T04:33:38.065Z,18.38
2022-10-20T04:36:08.457Z,18.08
2022-10-20T04:38:36.799Z,20.30
2022-10-20T04:41:06.137Z,18.85
2022-10-20T04:43:34.804Z,18.70
2022-10-20T04:46:06.981Z,19.17
2022-10-20T04:51:09.098Z,18.48
2022-10-20T04:53:37.821Z,18.77
2022-10-20T04:56:06.907Z,18.50
2022-10-20T04:58:35.466Z,18.13
2022-10-20T05:01:05.015Z,18.00
2022-10-20T05:03:33.445Z,17.17
2022-10-20T05:06:14.179Z,17.63
2022-10-20T05:08:43.910Z,18.75
2022-10-20T05:11:12.682Z,17.75
2022-10-20T05:13:40.993Z,17.40
2022-10-20T05:16:10.094Z,17.35
2022-10-20T05:18:38.809Z,17.02
2022-10-20T05:21:09.660Z,17.30
2022-10-20T05:23:40.732Z,17.42
2022-10-20T05:26:10.911Z,16.55
2022-10-20T05:28:39.222Z,17.17
2022-10-20T05:31:09.014Z,16.90
2022-10-20T05:33:38.025Z,17.17
2022-10-20T05:36:10.839Z,16.65
2022-10-20T05:38:40.873Z,17.83
2022-10-20T05:41:10.815Z,16.10
2022-10-20T05:43:39.359Z,16.85
2022-10-20T05:46:08.339Z,16.13
2022-10-20T05:48:42.129Z,17.45
2022-10-20T05:51:15.027Z,15.30
2022-10-20T05:53:47.084Z,16.05
2022-10-20T05:56:18.266Z,15.50
2022-10-20T05:58:47.337Z,16.33
2022-10-20T06:01:18.389Z,16.38
2022-10-20T06:03:49.768Z,15.50
2022-10-20T06:06:18.469Z,16.30
2022-10-20T06:08:48.603Z,16.33
2022-10-20T06:11:17.345Z,15.77
2022-10-20T06:13:48.481Z,16.50
2022-10-20T06:16:22.559Z,16.00
2022-10-20T06:18:51.627Z,16.55
2022-10-20T06:21:21.532Z,16.17
2022-10-20T06:23:51.725Z,16.25
2022-10-20T06:26:21.551Z,16.60
2022-10-20T06:28:51.706Z,16.05
2022-10-20T06:31:21.544Z,15.38
2022-10-20T06:33:50.434Z,15.35
2022-10-20T06:36:19.763Z,16.15
2022-10-20T06:38:48.729Z,15.13
2022-10-20T06:41:19.498Z,16.25
2022-10-20T06:43:47.952Z,16.55
2022-10-20T06:46:18.155Z,16.30
2022-10-20T06:48:47.597Z,15.43
2022-10-20T06:51:18.864Z,16.67
2022-10-20T06:53:47.774Z,16.02
2022-10-20T06:56:19.556Z,16.05
2022-10-20T06:58:49.929Z,16.05
2022-10-20T07:01:19.703Z,16.77
2022-10-20T07:03:49.020Z,15.82
2022-10-20T07:06:20.169Z,16.23
2022-10-20T07:08:51.038Z,16.65
2022-10-20T07:11:22.841Z,16.17
2022-10-20T07:13:50.967Z,16.48
2022-10-20T07:16:20.818Z,16.70
2022-10-20T07:18:49.915Z,16.40
2022-10-20T07:21:20.349Z,16.88
2022-10-20T07:23:49.506Z,16.58
2022-10-20T07:26:21.283Z,17.00
2022-10-20T07:28:55.534Z,17.33
2022-10-20T07:31:26.583Z,18.20
2022-10-20T07:34:06.685Z,17.13
2022-10-20T07:36:43.321Z,17.92
2022-10-20T07:39:13.838Z,18.70
2022-10-20T07:41:47.497Z,17.95
2022-10-20T07:46:44.365Z,17.40
2022-10-20T07:52:01.186Z,18.00
2022-10-20T07:54:29.566Z,17.85
2022-10-20T07:56:59.316Z,17.27
2022-10-20T07:59:27.375Z,17.77
2022-10-20T08:01:56.240Z,18.83
2022-10-20T08:04:27.501Z,18.98
2022-10-20T08:06:55.853Z,19.52
2022-10-20T08:09:24.463Z,19.33
2022-10-20T08:11:55.423Z,18.73
2022-10-20T08:14:28.090Z,18.35
2022-10-20T08:17:00.300Z,19.08
2022-10-20T08:19:50.083Z,18.40
2022-10-20T08:22:22.269Z,19.15
2022-10-20T08:24:50.672Z,19.65
2022-10-20T08:27:18.797Z,20.17
2022-10-20T08:29:55.275Z,19.48
2022-10-20T08:32:34.979Z,20.58
2022-10-20T08:35:03.895Z,21.20
2022-10-20T08:37:33.284Z,20.05
2022-10-20T08:40:01.920Z,21.58
2022-10-20T08:42:30.523Z,21.10
2022-10-20T08:45:01.620Z,21.50
2022-10-20T08:47:34.667Z,21.98
2022-10-20T08:50:05.890Z,21.42
2022-10-20T08:52:34.865Z,22.30
2022-10-20T08:55:06.447Z,22.50
2022-10-20T08:57:36.995Z,21.55
2022-10-20T09:00:16.684Z,21.83
2022-10-20T09:02:45.476Z,23.27
2022-10-20T09:05:19.112Z,23.77
2022-10-20T09:07:50.176Z,22.58
2022-10-20T09:10:33.685Z,21.48
2022-10-20T09:13:02.909Z,22.35
2022-10-20T09:15:32.635Z,20.92
2022-10-20T09:18:03.947Z,20.50
2022-10-20T09:20:35.672Z,20.13
2022-10-20T09:23:07.887Z,21.52
2022-10-20T09:25:42.055Z,19.80
2022-10-20T09:28:21.927Z,19.15
2022-10-20T09:30:51.784Z,20.02
2022-10-20T09:33:28.374Z,19.95
2022-10-20T09:36:02.221Z,18.33
2022-10-20T09:38:32.889Z,18.45
2022-10-20T09:41:11.431Z,18.65
2022-10-20T09:43:42.544Z,18.40
2022-10-20T09:46:13.172Z,19.85
2022-10-20T09:48:47.167Z,17.90
2022-10-20T09:51:18.260Z,16.58
2022-10-20T09:53:56.524Z,16.23
2022-10-20T09:56:27.139Z,14.90
2022-10-20T09:58:56.558Z,15.32
2022-10-20T10:01:26.522Z,15.85
2022-10-20T10:03:56.937Z,15.88
2022-10-20T10:06:34.276Z,17.38
2022-10-20T10:09:03.647Z,16.98
2022-10-20T10:11:35.505Z,16.95
2022-10-20T10:14:05.063Z,17.05
2022-10-20T10:16:44.267Z,16.42
2022-10-20T10:19:19.468Z,16.65
2022-10-20T10:21:52.702Z,15.90
2022-10-20T10:24:38.024Z,15.38
2022-10-20T10:27:10.224Z,15.50
2022-10-20T10:29:38.653Z,14.45
2022-10-20T10:32:16.322Z,14.00
2022-10-20T10:35:02.371Z,14.68
2022-10-20T10:37:34.044Z,14.23
2022-10-20T10:40:05.197Z,12.65
2022-10-20T10:42:49.530Z,12.13
2022-10-20T10:45:33.529Z,12.82
2022-10-20T10:48:38.416Z,12.93
2022-10-20T10:51:11.741Z,12.10
2022-10-20T10:53:57.831Z,12.13
2022-10-20T10:56:33.105Z,12.43
2022-10-20T10:59:07.864Z,12.18
2022-10-20T11:02:07.041Z,12.25
2022-10-20T11:04:51.648Z,11.90
2022-10-20T11:07:29.601Z,12.38
2022-10-20T11:10:05.854Z,10.80
2022-10-20T11:12:55.409Z,11.68
2022-10-20T11:15:35.021Z,11.00
2022-10-20T11:18:13.220Z,10.90
2022-10-20T11:20:51.335Z,11.10
2022-10-20T11:23:55.262Z,10.60
2022-10-20T11:26:29.143Z,10.30
2022-10-20T11:28:59.301Z,10.38
2022-10-20T11:31:32.806Z,9.18
2022-10-20T11:34:07.257Z,8.88
2022-10-20T11:36:42.529Z,9.05
2022-10-20T11:39:19.007Z,9.02
2022-10-20T11:41:50.452Z,8.82
2022-10-20T11:44:26.007Z,8.88
2022-10-20T11:46:58.923Z,8.02
2022-10-20T11:49:28.307Z,8.45
2022-10-20T11:52:40.145Z,7.38
2022-10-20T11:55:29.348Z,7.70
2022-10-20T11:58:16.024Z,6.95
2022-10-20T12:00:59.661Z,6.55
2022-10-20T12:04:18.729Z,6.07
2022-10-20T12:07:12.745Z,5.95
2022-10-20T12:10:01.004Z,5.82
2022-10-20T12:12:37.192Z,4.45
2022-10-20T12:15:21.800Z,3.80
2022-10-20T12:17:51.872Z,4.28
2022-10-20T12:20:48.737Z,4.10
2022-10-20T12:23:55.305Z,3.63
2022-10-20T12:27:06.147Z,3.83
2022-10-20T12:29:57.841Z,3.63
2022-10-20T12:32:44.740Z,3.42
2022-10-20T12:35:48.000Z,3.92
2022-10-20T12:38:19.426Z,3.70
2022-10-20T12:40:55.340Z,3.53
2022-10-20T12:43:30.220Z,4.00
2022-10-20T12:46:08.160Z,3.55
2022-10-20T12:48:43.576Z,3.55
2022-10-20T12:51:21.488Z,3.85
2022-10-20T12:53:58.024Z,3.72
2022-10-20T12:56:29.551Z,3.42
2022-10-20T12:59:46.574Z,3.85
2022-10-20T13:02:49.071Z,3.67
2022-10-20T13:05:46.292Z,3.70
2022-10-20T13:08:33.334Z,3.20
2022-10-20T13:11:34.786Z,3.22
2022-10-20T13:14:15.352Z,4.10
2022-10-20T13:16:50.300Z,3.70
2022-10-20T13:19:23.936Z,3.40
2022-10-20T13:21:52.602Z,3.50
2022-10-20T13:24:27.429Z,3.40
2022-10-20T13:26:59.825Z,3.80
2022-10-20T13:29:32.302Z,3.63
2022-10-20T13:32:12.413Z,3.22
2022-10-20T13:34:46.926Z,3.20
2022-10-20T13:37:25.677Z,3.30
2022-10-20T13:40:04.947Z,3.30
2022-10-20T13:42:44.091Z,3.30
2022-10-20T13:45:22.615Z,3.15
2022-10-20T13:47:57.440Z,3.15
2022-10-20T13:50:31.545Z,3.17
2022-10-20T13:53:04.548Z,3.35
2022-10-20T13:55:56.394Z,3.03
2022-10-20T13:58:25.815Z,3.15
2022-10-20T14:01:03.871Z,3.45
2022-10-20T14:03:41.267Z,3.22
2022-10-20T14:06:31.321Z,2.80
2022-10-20T14:09:09.650Z,3.10
2022-10-20T14:11:38.230Z,2.90
2022-10-20T14:14:06.491Z,2.83
2022-10-20T14:16:36.171Z,3.17
2022-10-20T14:19:09.403Z,2.67
2022-10-20T14:21:45.510Z,2.90
2022-10-20T14:24:23.543Z,3.03
2022-10-20T14:26:52.725Z,3.08
2022-10-20T14:29:22.939Z,2.63
2022-10-20T14:31:51.573Z,2.42
2022-10-20T14:34:23.868Z,2.40
2022-10-20T14:36:54.691Z,2.80
2022-10-20T14:39:33.725Z,2.50
2022-10-20T14:42:04.166Z,2.35
2022-10-20T14:44:32.993Z,2.20
2022-10-20T14:47:05.564Z,3.05
2022-10-20T14:49:39.869Z,2.33
2022-10-20T14:52:22.269Z,2.60
2022-10-20T14:54:51.801Z,2.35
2022-10-20T14:57:40.884Z,2.33
2022-10-20T15:00:30.866Z,2.20
2022-10-20T15:03:03.237Z,2.25
2022-10-20T15:05:42.518Z,2.67
2022-10-20T15:08:25.559Z,2.65
2022-10-20T15:10:53.852Z,2.50
2022-10-20T15:13:28.163Z,2.30
2022-10-20T15:15:57.947Z,2.28
2022-10-20T15:18:26.897Z,2.53
2022-10-20T15:20:57.604Z,2.25
2022-10-20T15:23:27.284Z,2.50
2022-10-20T15:25:59.695Z,2.90
2022-10-20T15:28:35.369Z,2.47
2022-10-20T15:31:05.644Z,2.42
2022-10-20T15:33:34.351Z,2.85
2022-10-20T15:36:03.855Z,2.63
2022-10-20T15:38:32.035Z,2.70
2022-10-20T15:41:02.855Z,2.50
2022-10-20T15:43:31.265Z,2.53
2022-10-20T15:45:59.448Z,2.63
2022-10-20T15:48:27.701Z,2.63
2022-10-20T15:50:59.073Z,2.50
2022-10-20T15:53:29.092Z,2.20
2022-10-20T15:55:57.346Z,2.33
2022-10-20T15:58:25.514Z,2.35
2022-10-20T16:00:53.979Z,2.22
2022-10-20T16:03:22.294Z,2.63
2022-10-20T16:05:50.463Z,2.63
2022-10-20T16:08:18.641Z,2.22
2022-10-20T16:10:48.190Z,7.03
2022-10-20T16:13:18.490Z,3.55
2022-10-20T16:15:46.739Z,2.53
2022-10-20T16:18:14.846Z,2.40
2022-10-20T16:20:43.009Z,2.95
2022-10-20T16:23:11.309Z,2.78
2022-10-20T16:25:41.132Z,3.17
2022-10-20T16:28:10.950Z,4.00
2022-10-20T16:30:39.396Z,3.90
2022-10-20T16:33:07.633Z,4.13
2022-10-20T16:35:35.774Z,5.28
2022-10-20T16:38:04.558Z,5.25
2022-10-20T16:40:32.643Z,4.88
2022-10-20T16:43:00.983Z,5.47
2022-10-20T16:45:30.907Z,5.20
2022-10-20T16:47:59.054Z,4.25
2022-10-20T16:50:27.177Z,4.03
2022-10-20T16:52:55.665Z,4.57
2022-10-20T16:55:23.779Z,4.40
2022-10-20T16:57:51.901Z,4.18
2022-10-20T17:00:20.296Z,5.00
2022-10-20T17:02:49.852Z,5.18
2022-10-20T17:05:19.726Z,7.95
2022-10-20T17:07:48.187Z,7.68
2022-10-20T17:10:16.625Z,4.70
2022-10-20T17:15:21.872Z,4.10
2022-10-20T17:17:51.582Z,4.22
2022-10-20T17:20:19.666Z,3.42
2022-10-20T17:22:48.255Z,2.70
2022-10-20T17:25:16.658Z,3.05
2022-10-20T17:27:44.712Z,2.83
2022-10-20T17:30:14.340Z,4.65
2022-10-20T17:32:43.120Z,3.83
2022-10-20T17:35:14.504Z,3.90
2022-10-20T17:37:42.929Z,7.53
2022-10-20T17:40:11.714Z,5.55
2022-10-20T17:42:40.257Z,4.82
2022-10-20T17:45:09.863Z,4.70
2022-10-20T17:47:38.114Z,5.18
2022-10-20T17:52:42.164Z,6.80
2022-10-20T17:55:10.642Z,8.63
2022-10-20T17:57:38.874Z,5.95
2022-10-20T18:00:11.756Z,5.10
2022-10-20T18:02:47.903Z,4.32
2022-10-20T18:05:16.765Z,4.05
2022-10-20T18:07:46.545Z,4.15
2022-10-20T18:10:14.809Z,3.90
2022-10-20T18:12:43.170Z,4.20
2022-10-20T18:15:11.414Z,3.80
2022-10-20T18:17:39.518Z,4.05
2022-10-20T18:20:12.960Z,4.15
2022-10-20T18:22:41.435Z,4.18
2022-10-20T18:25:11.450Z,4.15
2022-10-20T18:27:39.797Z,4.72
2022-10-20T18:30:09.496Z,4.05
2022-10-20T18:32:37.942Z,4.30
2022-10-20T18:35:07.310Z,4.05
2022-10-20T18:37:35.892Z,3.97
2022-10-20T18:40:04.669Z,3.97
2022-10-20T18:42:35.101Z,4.35
2022-10-20T18:45:03.479Z,4.13
2022-10-20T18:47:31.579Z,5.00
2022-10-20T18:49:59.815Z,4.20
2022-10-20T18:52:28.041Z,5.63
2022-10-20T18:54:56.316Z,5.70
2022-10-20T18:57:24.508Z,4.65
2022-10-20T18:59:54.109Z,5.05
2022-10-20T19:02:22.311Z,4.95
2022-10-20T19:04:50.705Z,4.70
2022-10-20T19:07:19.101Z,5.28
2022-10-20T19:09:49.139Z,4.75
2022-10-20T19:12:20.349Z,5.30
2022-10-20T19:14:48.504Z,7.43
2022-10-20T19:17:17.975Z,7.35
2022-10-20T19:19:46.719Z,6.30
2022-10-20T19:22:14.882Z,6.05
2022-10-20T19:24:43.155Z,5.57
2022-10-20T19:27:26.163Z,5.30
2022-10-20T19:32:25.737Z,5.65
2022-10-20T19:34:53.840Z,5.70
2022-10-20T19:37:24.379Z,5.40
2022-10-20T19:39:54.945Z,5.38
2022-10-20T19:42:23.096Z,5.60
2022-10-20T19:44:51.393Z,5.40
2022-10-20T19:47:19.902Z,6.75
2022-10-20T19:49:49.504Z,6.32
2022-10-20T19:52:17.672Z,6.57
2022-10-20T19:54:46.083Z,6.45
2022-10-20T19:57:14.346Z,5.93
2022-10-20T19:59:42.521Z,6.72
2022-10-20T20:02:11.698Z,6.18
2022-10-20T20:04:40.478Z,6.05
2022-10-20T20:07:10.029Z,6.38
2022-10-20T20:09:38.546Z,6.32
2022-10-20T20:12:06.757Z,6.13
2022-10-20T20:14:35.003Z,6.70
2022-10-20T20:17:04.308Z,6.88
2022-10-20T20:19:33.448Z,6.00
2022-10-20T20:22:01.570Z,6.10
2022-10-20T20:24:31.343Z,6.68
2022-10-20T20:26:59.467Z,6.75
2022-10-20T20:29:27.662Z,7.13
2022-10-20T20:31:55.979Z,7.15
2022-10-20T20:34:24.275Z,6.78
2022-10-20T20:36:52.455Z,6.85
2022-10-20T20:39:20.971Z,6.78
2022-10-20T20:41:50.453Z,7.18
2022-10-20T20:44:18.893Z,7.35
2022-10-20T20:46:47.215Z,7.50
2022-10-20T20:49:15.320Z,7.80
2022-10-20T20:51:43.572Z,7.68
2022-10-20T20:54:11.884Z,8.00
2022-10-20T20:56:40.162Z,8.38
2022-10-20T20:59:10.157Z,8.02
2022-10-20T21:01:38.436Z,8.27
2022-10-20T21:04:10.270Z,7.70
2022-10-20T21:07:00.867Z,8.10
2022-10-20T21:09:28.362Z,7.65
2022-10-20T21:11:56.729Z,7.22
2022-10-20T21:14:26.308Z,7.72
2022-10-20T21:16:54.600Z,7.28
2022-10-20T21:19:23.246Z,7.68
2022-10-20T21:21:57.195Z,7.22
2022-10-20T21:24:26.622Z,8.32
2022-10-20T21:26:54.975Z,7.95
2022-10-20T21:29:23.405Z,8.45
2022-10-20T21:31:55.218Z,7.95
2022-10-20T21:34:23.360Z,8.32
2022-10-20T21:36:51.440Z,8.05
2022-10-20T21:39:19.946Z,7.32
2022-10-20T21:41:49.733Z,7.43
2022-10-20T21:44:17.852Z,8.18
2022-10-20T21:46:49.502Z,8.65
2022-10-20T21:49:21.012Z,8.18
2022-10-20T21:51:52.463Z,8.35
2022-10-20T21:54:23.026Z,9.20
2022-10-20T21:56:52.427Z,8.30
2022-10-20T21:59:22.540Z,9.15
2022-10-20T22:01:51.240Z,8.18
2022-10-20T22:04:22.846Z,9.00
2022-10-20T22:06:51.065Z,8.52
2022-10-20T22:09:19.773Z,9.15
2022-10-20T22:11:55.479Z,9.55
2022-10-20T22:14:24.554Z,9.05
2022-10-20T22:16:55.436Z,8.93
2022-10-20T22:19:25.967Z,8.90
2022-10-20T22:21:55.074Z,8.50
2022-10-20T22:24:24.377Z,9.13
2022-10-20T22:26:53.818Z,9.23
2022-10-20T22:29:22.965Z,9.15
2022-10-20T22:31:51.446Z,9.10
2022-10-20T22:34:19.760Z,9.55
2022-10-20T22:36:49.404Z,9.15
2022-10-20T22:39:17.641Z,10.07
2022-10-20T22:41:45.998Z,9.80
2022-10-20T22:44:14.423Z,9.80
2022-10-20T22:46:42.508Z,9.60
2022-10-20T22:49:12.692Z,9.70
2022-10-20T22:51:41.060Z,10.07
2022-10-20T22:54:10.664Z,9.50
2022-10-20T22:56:38.957Z,10.35
2022-10-20T22:59:07.237Z,9.63
2022-10-20T23:01:35.376Z,10.38
2022-10-20T23:04:03.651Z,11.32
2022-10-20T23:06:31.846Z,10.55
2022-10-20T23:08:59.974Z,10.10
2022-10-20T23:11:30.114Z,10.68
2022-10-20T23:13:58.482Z,9.75
2022-10-20T23:16:26.631Z,10.30
2022-10-20T23:18:54.862Z,9.88
2022-10-20T23:21:23.120Z,9.52
2022-10-20T23:23:51.298Z,9.27
2022-10-20T23:26:19.507Z,9.57
2022-10-20T23:28:49.799Z,8.65
2022-10-20T23:31:20.418Z,8.13
2022-10-20T23:33:50.947Z,8.40
2022-10-20T23:36:19.084Z,8.95
2022-10-20T23:38:47.727Z,8.65
2022-10-20T23:41:16.305Z,7.97
2022-10-20T23:43:44.579Z,8.27
2022-10-20T23:46:14.606Z,8.68
2022-10-20T23:48:43.697Z,7.85
2022-10-20T23:51:11.879Z,8.70
2022-10-20T23:53:40.083Z,8.52
2022-10-20T23:56:09.181Z,9.85
2022-10-20T23:58:37.310Z,9.23
